createdAt,value
2023-01-10T00:02:12.408Z,9.98
2023-01-10T00:04:40.734Z,9.43
2023-01-10T00:07:08.931Z,9.98
2023-01-10T00:09:38.202Z,10.60
2023-01-10T00:12:31.191Z,9.68
2023-01-10T00:15:05.937Z,9.83
2023-01-10T00:17:34.343Z,9.95
2023-01-10T00:20:22.867Z,9.03
2023-01-10T00:22:52.003Z,9.30
2023-01-10T00:25:20.971Z,9.10
2023-01-10T00:27:51.466Z,9.55
2023-01-10T00:30:19.797Z,10.40
2023-01-10T00:32:54.756Z,10.23
2023-01-10T00:35:23.481Z,10.15
2023-01-10T00:37:53.495Z,9.95
2023-01-10T00:40:21.712Z,9.28
2023-01-10T00:43:08.253Z,9.75
2023-01-10T00:45:36.543Z,9.53
2023-01-10T00:48:07.229Z,9.15
2023-01-10T00:50:43.376Z,9.73
2023-01-10T00:53:17.758Z,9.23
2023-01-10T00:55:49.479Z,8.90
2023-01-10T00:58:17.939Z,8.50
2023-01-10T01:00:46.536Z,9.00
2023-01-10T01:03:15.239Z,8.10
2023-01-10T01:05:45.644Z,8.55
2023-01-10T01:08:16.409Z,9.50
2023-01-10T01:10:44.733Z,8.78
2023-01-10T01:13:20.162Z,8.60
2023-01-10T01:15:48.796Z,9.03
2023-01-10T01:18:21.192Z,8.80
2023-01-10T01:20:59.827Z,8.48
2023-01-10T01:23:28.684Z,9.25
2023-01-10T01:25:57.755Z,8.03
2023-01-10T01:28:26.888Z,9.13
2023-01-10T01:30:55.127Z,9.38
2023-01-10T01:33:23.931Z,10.25
2023-01-10T01:35:52.069Z,10.50
2023-01-10T01:38:20.178Z,9.48
2023-01-10T01:40:48.198Z,8.88
2023-01-10T01:43:25.681Z,8.85
2023-01-10T01:45:55.276Z,8.30
2023-01-10T01:48:39.513Z,9.58
2023-01-10T01:51:18.083Z,9.05
2023-01-10T01:53:54.367Z,9.58
2023-01-10T01:56:48.161Z,8.95
2023-01-10T01:59:21.517Z,8.60
2023-01-10T02:04:33.905Z,9.48
2023-01-10T02:07:02.110Z,9.28
2023-01-10T02:09:50.787Z,8.58
2023-01-10T02:12:28.453Z,8.53
2023-01-10T02:15:04.430Z,8.63
2023-01-10T02:17:44.687Z,8.48
2023-01-10T02:20:18.863Z,9.23
2023-01-10T02:23:24.584Z,9.10
2023-01-10T02:26:16.829Z,10.35
2023-01-10T02:35:52.197Z,9.78
2023-01-10T02:38:47.447Z,10.10
2023-01-10T02:41:49.777Z,9.33
2023-01-10T02:44:46.418Z,9.55
2023-01-10T02:47:26.873Z,9.03
2023-01-10T02:52:32.680Z,8.23
2023-01-10T02:55:03.506Z,9.43
2023-01-10T02:57:39.781Z,9.08
2023-01-10T03:00:28.803Z,8.58
2023-01-10T03:03:14.451Z,9.03
2023-01-10T03:06:13.391Z,8.95
2023-01-10T03:08:55.251Z,8.75
2023-01-10T03:11:29.591Z,8.48
2023-01-10T03:14:00.495Z,8.80
2023-01-10T03:16:31.521Z,8.13
2023-01-10T03:19:20.692Z,9.88
2023-01-10T03:21:52.545Z,10.53
2023-01-10T03:24:25.206Z,11.25
2023-01-10T03:27:13.765Z,10.15
2023-01-10T03:30:02.340Z,9.53
2023-01-10T03:32:32.384Z,8.83
2023-01-10T03:35:02.602Z,9.10
2023-01-10T03:37:59.641Z,8.58
2023-01-10T03:40:43.431Z,9.45
2023-01-10T03:43:44.460Z,9.10
2023-01-10T03:46:21.561Z,8.78
2023-01-10T03:48:51.623Z,8.10
2023-01-10T03:51:20.529Z,8.90
2023-01-10T03:53:48.744Z,9.63
2023-01-10T03:56:16.925Z,9.68
2023-01-10T03:58:47.058Z,10.58
2023-01-10T04:01:15.952Z,12.45
2023-01-10T04:03:46.072Z,11.15
2023-01-10T04:06:14.397Z,10.25
2023-01-10T04:08:42.624Z,8.48
2023-01-10T04:11:10.914Z,8.85
2023-01-10T04:13:40.875Z,8.13
2023-01-10T04:16:09.265Z,7.10
2023-01-10T04:18:37.354Z,7.28
2023-01-10T04:21:06.496Z,7.25
2023-01-10T04:23:34.538Z,7.25
2023-01-10T04:26:02.613Z,7.78
2023-01-10T04:28:30.521Z,8.05
2023-01-10T04:30:58.698Z,8.55
2023-01-10T04:33:28.178Z,8.00
2023-01-10T04:35:56.263Z,7.90
2023-01-10T04:38:24.212Z,7.72
2023-01-10T04:40:54.733Z,7.25
2023-01-10T04:43:25.066Z,8.45
2023-01-10T04:45:53.320Z,7.87
2023-01-10T04:48:21.546Z,8.10
2023-01-10T04:50:53.166Z,8.03
2023-01-10T04:53:21.985Z,8.75
2023-01-10T04:55:49.960Z,9.28
2023-01-10T04:58:18.234Z,10.18
2023-01-10T05:00:46.301Z,10.18
2023-01-10T05:03:19.434Z,9.23
2023-01-10T05:05:47.749Z,9.20
2023-01-10T05:08:32.051Z,8.75
2023-01-10T05:11:05.279Z,9.15
2023-01-10T05:13:53.060Z,8.70
2023-01-10T05:16:29.154Z,7.75
2023-01-10T05:18:58.534Z,8.53
2023-01-10T05:21:44.874Z,7.97
2023-01-10T05:24:30.773Z,8.10
2023-01-10T05:27:06.224Z,7.90
2023-01-10T05:29:38.363Z,9.20
2023-01-10T05:32:06.860Z,9.28
2023-01-10T05:34:35.239Z,8.85
2023-01-10T05:37:03.728Z,8.95
2023-01-10T05:39:32.109Z,9.35
2023-01-10T05:42:00.677Z,8.33
2023-01-10T05:44:28.109Z,7.55
2023-01-10T05:46:56.015Z,9.33
2023-01-10T05:49:23.875Z,8.93
2023-01-10T05:51:51.745Z,9.03
2023-01-10T05:54:19.572Z,8.35
2023-01-10T05:56:47.280Z,10.50
2023-01-10T05:59:27.461Z,12.07
2023-01-10T06:01:44.495Z,14.18
2023-01-10T06:04:12.335Z,13.60
2023-01-10T06:06:40.189Z,11.63
2023-01-10T06:09:07.877Z,10.48
2023-01-10T06:11:37.711Z,11.68
2023-01-10T06:14:07.266Z,10.90
2023-01-10T06:16:35.059Z,10.23
2023-01-10T06:19:02.942Z,13.20
2023-01-10T06:21:30.711Z,13.50
2023-01-10T06:23:58.576Z,16.60
2023-01-10T06:26:26.420Z,16.90
2023-01-10T06:28:54.362Z,14.45
2023-01-10T06:31:22.783Z,15.98
2023-01-10T06:33:51.432Z,12.58
2023-01-10T06:36:19.765Z,15.68
2023-01-10T06:38:47.953Z,14.95
2023-01-10T06:41:15.675Z,13.70
2023-01-10T06:43:45.840Z,14.68
2023-01-10T06:46:19.083Z,12.15
2023-01-10T06:48:47.808Z,11.05
2023-01-10T06:51:19.162Z,10.15
2023-01-10T06:53:46.501Z,11.57
2023-01-10T06:56:14.288Z,10.55
2023-01-10T06:58:42.017Z,10.45
2023-01-10T07:01:19.593Z,10.95
2023-01-10T07:03:48.353Z,9.93
2023-01-10T07:06:16.338Z,19.85
2023-01-10T07:08:45.918Z,30.10
2023-01-10T07:11:16.542Z,34.63
2023-01-10T07:13:44.566Z,31.70
2023-01-10T07:16:15.591Z,18.32
2023-01-10T07:18:43.673Z,13.53
2023-01-10T07:21:12.138Z,13.38
2023-01-10T07:23:40.307Z,14.80
2023-01-10T07:26:11.200Z,12.35
2023-01-10T07:28:38.791Z,12.80
2023-01-10T07:31:06.583Z,13.03
2023-01-10T07:33:34.347Z,13.05
2023-01-10T07:36:03.371Z,14.13
2023-01-10T07:38:31.154Z,13.60
2023-01-10T07:41:04.448Z,12.20
2023-01-10T07:43:33.469Z,12.20
2023-01-10T07:46:04.112Z,11.55
2023-01-10T07:48:31.827Z,11.00
2023-01-10T07:51:01.342Z,11.35
2023-01-10T07:53:29.393Z,19.57
2023-01-10T07:56:02.683Z,11.40
2023-01-10T07:58:31.147Z,11.15
2023-01-10T08:01:01.950Z,10.70
2023-01-10T08:03:30.323Z,12.25
2023-01-10T08:06:04.367Z,10.63
2023-01-10T08:08:34.004Z,10.82
2023-01-10T08:11:02.269Z,11.48
2023-01-10T08:13:31.483Z,10.00
2023-01-10T08:15:59.691Z,10.68
2023-01-10T08:18:27.675Z,8.40
2023-01-10T08:20:55.589Z,8.83
2023-01-10T08:23:23.547Z,10.08
2023-01-10T08:25:53.975Z,9.60
2023-01-10T08:28:21.691Z,10.55
2023-01-10T08:30:51.575Z,11.70
2023-01-10T08:33:19.292Z,12.65
2023-01-10T08:35:47.196Z,10.32
2023-01-10T08:38:15.877Z,10.53
2023-01-10T08:40:43.537Z,9.88
2023-01-10T08:43:12.461Z,8.88
2023-01-10T08:45:42.092Z,8.30
2023-01-10T08:48:10.297Z,8.30
2023-01-10T08:50:38.187Z,8.58
2023-01-10T08:53:05.941Z,8.13
2023-01-10T08:55:36.800Z,7.80
2023-01-10T08:58:04.566Z,7.85
2023-01-10T09:00:32.406Z,7.03
2023-01-10T09:03:00.535Z,6.60
2023-01-10T09:05:28.703Z,8.23
2023-01-10T09:08:02.082Z,9.03
2023-01-10T09:10:31.653Z,10.35
2023-01-10T09:13:01.103Z,9.80
2023-01-10T09:15:35.208Z,9.70
2023-01-10T09:18:07.101Z,11.57
2023-01-10T09:20:37.862Z,14.87
2023-01-10T09:23:09.393Z,14.00
2023-01-10T09:25:37.972Z,13.22
2023-01-10T09:28:06.738Z,13.25
2023-01-10T09:30:34.836Z,13.90
2023-01-10T09:33:04.837Z,13.53
2023-01-10T09:35:35.640Z,14.13
2023-01-10T09:38:06.119Z,14.15
2023-01-10T09:41:12.422Z,14.20
2023-01-10T09:46:53.703Z,14.80
2023-01-10T09:49:48.919Z,11.85
2023-01-10T09:52:27.676Z,11.85
2023-01-10T09:54:58.655Z,11.30
2023-01-10T09:57:26.433Z,9.85
2023-01-10T09:59:54.277Z,10.03
2023-01-10T10:02:34.943Z,11.68
2023-01-10T10:05:20.169Z,10.13
2023-01-10T10:07:56.142Z,9.30
2023-01-10T10:10:33.276Z,10.48
2023-01-10T10:13:37.748Z,11.63
2023-01-10T10:16:46.863Z,11.90
2023-01-10T10:20:02.763Z,10.25
2023-01-10T10:23:03.597Z,9.77
2023-01-10T10:25:57.009Z,9.95
2023-01-10T10:28:56.375Z,9.93
2023-01-10T10:31:52.564Z,9.70
2023-01-10T10:34:37.378Z,9.48
2023-01-10T10:37:33.242Z,10.85
2023-01-10T10:40:22.328Z,9.55
2023-01-10T10:42:53.584Z,9.55
2023-01-10T10:45:29.440Z,8.65
2023-01-10T10:48:05.650Z,8.40
2023-01-10T10:50:35.692Z,8.60
2023-01-10T10:53:04.773Z,7.92
2023-01-10T10:55:37.066Z,11.90
2023-01-10T10:58:08.277Z,12.35
2023-01-10T11:00:48.853Z,10.15
2023-01-10T11:03:49.583Z,11.03
2023-01-10T11:06:19.776Z,10.65
2023-01-10T11:08:52.486Z,10.70
2023-01-10T11:11:37.046Z,9.53
2023-01-10T11:14:08.529Z,7.28
2023-01-10T11:16:44.399Z,8.18
2023-01-10T11:19:24.902Z,8.30
2023-01-10T11:22:02.525Z,6.53
2023-01-10T11:24:40.593Z,6.67
2023-01-10T11:27:18.505Z,6.65
2023-01-10T11:29:50.504Z,6.55
2023-01-10T11:32:22.994Z,6.62
2023-01-10T11:35:01.426Z,7.67
2023-01-10T11:37:32.921Z,7.53
2023-01-10T11:40:25.653Z,8.30
2023-01-10T11:43:06.843Z,6.28
2023-01-10T11:46:06.807Z,6.75
2023-01-10T11:49:08.631Z,7.08
2023-01-10T11:51:34.674Z,6.95
2023-01-10T11:54:15.051Z,8.20
2023-01-10T11:57:00.237Z,7.50
2023-01-10T11:59:28.868Z,8.23
2023-01-10T12:02:22.791Z,7.95
2023-01-10T12:04:52.752Z,6.85
2023-01-10T12:07:23.787Z,6.83
2023-01-10T12:10:03.415Z,6.80
2023-01-10T12:12:38.053Z,6.53
2023-01-10T12:15:30.425Z,6.53
2023-01-10T12:18:05.320Z,6.65
2023-01-10T12:20:38.635Z,6.40
2023-01-10T12:23:14.708Z,7.00
2023-01-10T12:25:45.157Z,7.78
2023-01-10T12:28:23.504Z,6.45
2023-01-10T12:30:55.818Z,7.15
2023-01-10T12:33:34.993Z,8.18
2023-01-10T12:36:25.577Z,9.60
2023-01-10T12:39:23.096Z,8.40
2023-01-10T12:42:30.269Z,9.30
2023-01-10T12:45:10.072Z,8.85
2023-01-10T12:48:07.450Z,8.63
2023-01-10T12:50:53.127Z,8.80
2023-01-10T12:56:08.664Z,8.05
2023-01-10T12:58:51.832Z,8.20
2023-01-10T13:01:27.964Z,8.68
2023-01-10T13:04:06.223Z,10.08
2023-01-10T13:06:37.881Z,13.90
2023-01-10T13:09:27.804Z,8.88
2023-01-10T13:12:12.269Z,7.95
2023-01-10T13:15:13.145Z,8.25
2023-01-10T13:17:48.206Z,8.78
2023-01-10T13:20:26.375Z,10.23
2023-01-10T13:23:00.792Z,10.45
2023-01-10T13:25:34.549Z,10.38
2023-01-10T13:28:28.149Z,9.10
2023-01-10T13:31:00.970Z,8.08
2023-01-10T13:33:33.013Z,8.65
2023-01-10T13:36:14.965Z,8.88
2023-01-10T13:38:50.988Z,8.58
2023-01-10T13:41:37.920Z,8.33
2023-01-10T13:44:11.191Z,9.60
2023-01-10T13:46:51.805Z,8.68
2023-01-10T13:49:40.100Z,8.28
2023-01-10T13:52:29.792Z,9.23
2023-01-10T13:55:03.298Z,9.28
2023-01-10T13:57:55.983Z,9.08
2023-01-10T14:00:53.489Z,9.98
2023-01-10T14:03:53.144Z,9.43
2023-01-10T14:06:36.903Z,8.68
2023-01-10T14:09:28.913Z,8.70
2023-01-10T14:23:18.221Z,10.13
2023-01-10T14:25:55.319Z,10.18
2023-01-10T14:28:28.210Z,11.88
2023-01-10T14:31:21.809Z,12.18
2023-01-10T14:33:50.497Z,10.25
2023-01-10T14:36:34.043Z,9.90
2023-01-10T14:39:06.768Z,11.63
2023-01-10T14:41:43.548Z,10.10
2023-01-10T14:44:32.943Z,9.10
2023-01-10T14:47:04.089Z,9.35
2023-01-10T14:49:50.796Z,10.03
2023-01-10T14:52:22.261Z,9.88
2023-01-10T14:55:22.221Z,9.65
2023-01-10T14:58:01.751Z,10.65
2023-01-10T15:00:33.825Z,11.33
2023-01-10T15:03:04.408Z,12.15
2023-01-10T15:05:40.604Z,10.30
2023-01-10T15:08:25.111Z,8.93
2023-01-10T15:11:01.684Z,9.68
2023-01-10T15:13:35.251Z,9.48
2023-01-10T15:16:07.485Z,13.33
2023-01-10T15:18:43.402Z,10.28
2023-01-10T15:21:14.322Z,10.32
2023-01-10T15:23:45.940Z,11.03
2023-01-10T15:26:30.217Z,12.23
2023-01-10T15:29:16.525Z,11.60
2023-01-10T15:31:44.721Z,11.60
2023-01-10T15:34:22.461Z,12.70
2023-01-10T15:36:57.309Z,14.55
2023-01-10T15:39:32.823Z,14.85
2023-01-10T15:42:09.165Z,13.95
2023-01-10T15:44:44.745Z,14.23
2023-01-10T15:50:28.872Z,14.50
2023-01-10T15:53:00.800Z,14.58
2023-01-10T15:55:46.645Z,14.10
2023-01-10T15:58:30.684Z,14.98
2023-01-10T16:01:01.452Z,15.48
2023-01-10T16:03:36.928Z,15.88
2023-01-10T16:06:08.407Z,15.00
2023-01-10T16:08:38.643Z,15.25
2023-01-10T16:11:11.982Z,14.58
2023-01-10T16:13:41.058Z,14.65
2023-01-10T16:16:14.424Z,14.58
2023-01-10T16:18:42.241Z,15.03
2023-01-10T16:21:11.412Z,15.28
2023-01-10T16:23:43.659Z,13.93
2023-01-10T16:26:19.758Z,12.63
2023-01-10T16:28:47.759Z,13.18
2023-01-10T16:31:15.506Z,12.35
2023-01-10T16:33:44.978Z,12.82
2023-01-10T16:36:19.643Z,12.73
2023-01-10T16:38:47.840Z,15.50
2023-01-10T16:41:35.088Z,18.07
2023-01-10T16:44:02.970Z,13.88
2023-01-10T16:46:31.736Z,12.10
2023-01-10T16:48:59.987Z,12.18
2023-01-10T16:51:31.815Z,12.80
2023-01-10T16:54:00.860Z,11.03
2023-01-10T16:56:30.127Z,12.18
2023-01-10T16:58:59.348Z,17.75
2023-01-10T17:01:35.904Z,18.10
2023-01-10T17:04:29.540Z,14.13
2023-01-10T17:06:58.853Z,13.28
2023-01-10T17:09:29.882Z,14.70
2023-01-10T17:12:18.616Z,20.37
2023-01-10T17:14:50.812Z,12.98
2023-01-10T17:17:31.811Z,12.88
2023-01-10T17:20:00.662Z,10.25
2023-01-10T17:22:30.489Z,10.30
2023-01-10T17:24:58.535Z,10.63
2023-01-10T17:27:26.606Z,12.15
2023-01-10T17:29:54.525Z,11.20
2023-01-10T17:32:22.537Z,10.00
2023-01-10T17:34:55.249Z,10.85
2023-01-10T17:37:23.104Z,10.80
2023-01-10T17:39:50.825Z,10.82
2023-01-10T17:42:19.858Z,10.32
2023-01-10T17:44:49.259Z,9.25
2023-01-10T17:47:17.724Z,9.70
2023-01-10T17:49:49.480Z,9.08
2023-01-10T17:52:17.803Z,10.20
2023-01-10T17:54:52.742Z,10.13
2023-01-10T17:57:21.090Z,10.00
2023-01-10T18:03:45.744Z,8.63
2023-01-10T18:07:03.315Z,9.78
2023-01-10T18:10:04.671Z,10.60
2023-01-10T18:12:40.089Z,10.40
2023-01-10T18:15:11.227Z,9.73
2023-01-10T18:24:09.990Z,10.85
2023-01-10T18:26:37.996Z,12.07
2023-01-10T18:29:05.957Z,13.93
2023-01-10T18:31:34.899Z,11.57
2023-01-10T18:34:02.844Z,11.75
2023-01-10T18:36:38.698Z,12.80
2023-01-10T18:39:06.497Z,12.50
2023-01-10T18:41:34.525Z,12.25
2023-01-10T18:44:02.623Z,12.37
2023-01-10T18:46:31.930Z,11.18
2023-01-10T18:49:00.274Z,11.50
2023-01-10T18:51:28.253Z,11.80
2023-01-10T18:53:56.166Z,12.20
2023-01-10T18:56:24.480Z,13.35
2023-01-10T18:58:52.697Z,17.27
2023-01-10T19:01:23.009Z,13.65
2023-01-10T19:03:51.680Z,12.18
2023-01-10T19:06:22.360Z,15.35
2023-01-10T19:08:51.181Z,11.43
2023-01-10T19:11:21.020Z,12.23
2023-01-10T19:13:53.456Z,11.57
2023-01-10T19:16:25.139Z,11.63
2023-01-10T19:19:00.985Z,12.33
2023-01-10T19:21:32.344Z,12.43
2023-01-10T19:24:04.648Z,12.82
2023-01-10T19:26:35.988Z,12.95
2023-01-10T19:29:04.796Z,9.75
2023-01-10T19:31:36.605Z,8.63
2023-01-10T19:34:07.968Z,9.60
2023-01-10T19:36:36.041Z,8.00
2023-01-10T19:39:06.782Z,7.97
2023-01-10T19:41:35.845Z,9.88
2023-01-10T19:44:08.777Z,8.38
2023-01-10T19:46:40.455Z,8.93
2023-01-10T19:49:09.339Z,9.55
2023-01-10T19:51:42.392Z,9.85
2023-01-10T19:54:13.338Z,9.95
2023-01-10T19:56:41.359Z,9.95
2023-01-10T19:59:13.441Z,9.70
2023-01-10T20:01:43.527Z,8.78
2023-01-10T20:04:17.025Z,9.08
2023-01-10T20:06:48.948Z,7.35
2023-01-10T20:09:17.160Z,7.12
2023-01-10T20:11:46.375Z,7.25
2023-01-10T20:14:19.635Z,6.30
2023-01-10T20:16:48.977Z,8.40
2023-01-10T20:19:18.239Z,6.67
2023-01-10T20:21:48.407Z,6.30
2023-01-10T20:24:20.540Z,6.60
2023-01-10T20:26:50.200Z,6.28
2023-01-10T20:29:19.164Z,5.12
2023-01-10T20:31:50.193Z,5.50
2023-01-10T20:34:22.512Z,4.60
2023-01-10T20:36:54.167Z,5.20
2023-01-10T20:39:27.302Z,5.97
2023-01-10T20:41:55.639Z,5.45
2023-01-10T20:44:25.604Z,5.95
2023-01-10T20:46:54.954Z,6.28
2023-01-10T20:49:25.761Z,5.10
2023-01-10T20:51:53.934Z,4.95
2023-01-10T20:54:25.248Z,4.92
2023-01-10T20:56:52.972Z,5.08
2023-01-10T20:59:21.737Z,5.65
2023-01-10T21:01:50.866Z,5.70
2023-01-10T21:04:18.794Z,5.62
2023-01-10T21:06:47.039Z,8.88
2023-01-10T21:09:16.204Z,5.97
2023-01-10T21:11:57.860Z,4.65
2023-01-10T21:14:14.383Z,4.58
2023-01-10T21:16:42.413Z,4.40
2023-01-10T21:19:12.309Z,4.80
2023-01-10T21:21:44.422Z,4.65
2023-01-10T21:24:12.680Z,4.67
2023-01-10T21:26:41.946Z,5.15
2023-01-10T21:29:12.818Z,4.65
2023-01-10T21:31:40.092Z,4.50
2023-01-10T21:34:08.158Z,3.85
2023-01-10T21:36:38.837Z,4.83
2023-01-10T21:39:08.001Z,4.10
2023-01-10T21:41:54.364Z,4.20
2023-01-10T21:44:22.676Z,3.65
2023-01-10T21:46:52.229Z,3.98
2023-01-10T21:49:20.865Z,4.53
2023-01-10T21:51:48.720Z,3.85
2023-01-10T21:54:20.064Z,9.08
2023-01-10T21:56:47.740Z,4.97
2023-01-10T21:59:18.598Z,5.75
2023-01-10T22:01:47.013Z,4.33
2023-01-10T22:04:17.326Z,5.60
2023-01-10T22:06:45.444Z,5.97
2023-01-10T22:09:13.109Z,7.75
2023-01-10T22:11:40.874Z,6.80
2023-01-10T22:14:10.441Z,4.92
2023-01-10T22:16:38.135Z,4.70
2023-01-10T22:19:06.151Z,3.25
2023-01-10T22:21:36.645Z,2.92
2023-01-10T22:24:06.495Z,2.77
2023-01-10T22:26:34.567Z,3.52
2023-01-10T22:29:03.827Z,3.52
2023-01-10T22:31:32.952Z,2.85
2023-01-10T22:34:00.694Z,3.65
2023-01-10T22:36:28.657Z,2.80
2023-01-10T22:38:56.430Z,2.60
2023-01-10T22:41:26.333Z,3.10
2023-01-10T22:43:55.368Z,4.28
2023-01-10T22:46:23.745Z,3.45
2023-01-10T22:48:52.378Z,3.40
2023-01-10T22:51:21.801Z,3.30
2023-01-10T22:53:58.793Z,3.15
2023-01-10T22:56:26.773Z,3.47
2023-01-10T22:58:57.286Z,3.08
2023-01-10T23:01:25.725Z,2.90
2023-01-10T23:03:53.421Z,2.80
2023-01-10T23:06:21.483Z,2.55
2023-01-10T23:08:50.111Z,3.15
2023-01-10T23:11:20.375Z,2.90
2023-01-10T23:13:48.353Z,5.20
2023-01-10T23:16:24.841Z,3.00
2023-01-10T23:18:52.732Z,3.05
2023-01-10T23:21:20.485Z,2.72
2023-01-10T23:23:48.527Z,3.05
2023-01-10T23:26:16.240Z,2.77
2023-01-10T23:28:47.895Z,3.02
2023-01-10T23:31:23.112Z,5.20
2023-01-10T23:36:19.648Z,3.10
2023-01-10T23:38:47.674Z,4.00
2023-01-10T23:41:15.839Z,3.40
2023-01-10T23:43:43.891Z,4.87
2023-01-10T23:46:13.272Z,3.50
2023-01-10T23:48:42.668Z,3.70
2023-01-10T23:51:10.983Z,4.17
2023-01-10T23:53:40.269Z,3.98
2023-01-10T23:56:14.247Z,3.15
2023-01-10T23:58:42.539Z,3.42
